createdAt,value
2018-02-20T00:01:39.042Z,33.05
2018-02-20T00:04:06.096Z,35.95
2018-02-20T00:06:32.322Z,35.90
2018-02-20T00:08:58.525Z,38.60
2018-02-20T00:11:24.652Z,33.72
2018-02-20T00:13:50.851Z,33.67
2018-02-20T00:16:17.090Z,37.92
2018-02-20T00:18:44.000Z,38.03
2018-02-20T00:21:10.898Z,39.75
2018-02-20T00:23:37.186Z,36.72
2018-02-20T00:26:03.399Z,35.55
2018-02-20T00:28:30.234Z,39.65
2018-02-20T00:30:56.518Z,38.25
2018-02-20T00:33:22.665Z,41.88
2018-02-20T00:35:48.836Z,35.10
2018-02-20T00:38:15.148Z,42.20
2018-02-20T00:40:41.234Z,34.92
2018-02-20T00:43:07.474Z,35.03
2018-02-20T00:45:34.634Z,35.88
2018-02-20T00:48:00.830Z,37.15
2018-02-20T00:50:27.105Z,36.97
2018-02-20T00:52:53.266Z,39.83
2018-02-20T00:55:21.292Z,36.88
2018-02-20T00:57:47.601Z,35.53
2018-02-20T01:00:15.029Z,35.40
2018-02-20T01:02:41.422Z,41.42
2018-02-20T01:05:09.199Z,37.50
2018-02-20T01:07:36.722Z,40.22
2018-02-20T01:10:02.920Z,35.38
2018-02-20T01:12:29.184Z,36.28
2018-02-20T01:14:55.554Z,35.30
2018-02-20T01:17:22.845Z,40.78
2018-02-20T01:19:49.171Z,39.92
2018-02-20T01:22:15.545Z,52.08
2018-02-20T01:24:41.840Z,39.45
2018-02-20T01:27:09.203Z,38.75
2018-02-20T01:29:35.632Z,42.33
2018-02-20T01:32:02.532Z,39.72
2018-02-20T01:34:30.484Z,40.45
2018-02-20T01:36:57.319Z,38.47
2018-02-20T01:39:23.654Z,40.75
2018-02-20T01:41:50.019Z,42.65
2018-02-20T01:44:17.005Z,37.65
2018-02-20T01:46:43.622Z,38.08
2018-02-20T01:49:09.909Z,36.20
2018-02-20T01:51:36.148Z,40.40
2018-02-20T01:54:02.414Z,32.65
2018-02-20T01:56:29.079Z,36.03
2018-02-20T01:58:55.374Z,36.25
2018-02-20T02:01:24.940Z,35.53
2018-02-20T02:03:52.342Z,36.85
2018-02-20T02:06:18.529Z,36.60
2018-02-20T02:08:44.813Z,32.22
2018-02-20T02:11:11.125Z,37.83
2018-02-20T02:13:38.094Z,41.40
2018-02-20T02:16:04.395Z,33.75
2018-02-20T02:18:30.581Z,46.75
2018-02-20T02:20:57.413Z,41.72
2018-02-20T02:23:23.611Z,37.65
2018-02-20T02:25:49.822Z,41.00
2018-02-20T02:28:15.938Z,40.00
2018-02-20T02:30:42.188Z,39.17
2018-02-20T02:33:09.340Z,37.40
2018-02-20T02:35:35.554Z,40.10
2018-02-20T02:38:03.467Z,36.13
2018-02-20T02:40:30.552Z,41.55
2018-02-20T02:42:59.239Z,40.25
2018-02-20T02:45:25.571Z,41.90
2018-02-20T02:47:51.899Z,39.92
2018-02-20T02:50:18.747Z,42.15
2018-02-20T02:52:45.992Z,40.88
2018-02-20T02:55:12.284Z,41.17
2018-02-20T02:57:39.266Z,42.42
2018-02-20T03:00:05.498Z,44.00
2018-02-20T03:02:33.716Z,38.38
2018-02-20T03:05:00.619Z,44.90
2018-02-20T03:07:26.948Z,50.55
2018-02-20T03:09:53.286Z,46.30
2018-02-20T03:12:20.741Z,43.42
2018-02-20T03:14:47.076Z,40.60
2018-02-20T03:17:13.285Z,46.42
2018-02-20T03:19:40.809Z,45.22
2018-02-20T03:22:08.057Z,43.97
2018-02-20T03:24:34.233Z,42.85
2018-02-20T03:27:00.801Z,40.80
2018-02-20T03:29:27.069Z,44.45
2018-02-20T03:31:53.676Z,44.08
2018-02-20T03:34:21.098Z,48.70
2018-02-20T03:36:47.757Z,41.40
2018-02-20T03:39:14.674Z,42.75
2018-02-20T03:41:40.798Z,38.83
2018-02-20T03:44:06.882Z,41.97
2018-02-20T03:46:33.080Z,44.35
2018-02-20T03:48:59.742Z,44.03
2018-02-20T03:51:25.967Z,48.63
2018-02-20T03:53:52.834Z,47.65
2018-02-20T03:56:19.301Z,44.10
2018-02-20T03:58:45.926Z,39.85
2018-02-20T04:01:12.939Z,42.70
2018-02-20T04:03:39.776Z,45.75
2018-02-20T04:06:06.630Z,43.38
2018-02-20T04:08:33.161Z,45.20
2018-02-20T04:11:00.393Z,48.00
2018-02-20T04:13:26.484Z,43.25
2018-02-20T04:15:52.620Z,50.78
2018-02-20T04:18:19.656Z,43.08
2018-02-20T04:20:45.888Z,42.83
2018-02-20T04:23:12.203Z,43.95
2018-02-20T04:25:38.390Z,43.97
2018-02-20T04:28:05.246Z,42.78
2018-02-20T04:30:31.708Z,44.67
2018-02-20T04:32:58.632Z,44.08
2018-02-20T04:35:24.726Z,43.13
2018-02-20T04:37:52.404Z,45.97
2018-02-20T04:40:19.728Z,49.42
2018-02-20T04:42:45.962Z,44.75
2018-02-20T04:45:12.312Z,50.38
2018-02-20T04:47:38.545Z,40.60
2018-02-20T04:50:06.598Z,43.75
2018-02-20T04:52:35.388Z,42.00
2018-02-20T04:55:01.719Z,45.03
2018-02-20T04:57:28.016Z,43.60
2018-02-20T04:59:54.551Z,43.08
2018-02-20T05:02:20.627Z,43.35
2018-02-20T05:04:46.747Z,42.08
2018-02-20T05:07:13.241Z,45.70
2018-02-20T05:09:40.257Z,42.28
2018-02-20T05:12:06.414Z,41.75
2018-02-20T05:14:33.615Z,46.70
2018-02-20T05:17:00.411Z,49.20
2018-02-20T05:19:26.673Z,41.72
2018-02-20T05:21:52.871Z,42.25
2018-02-20T05:24:19.037Z,42.40
2018-02-20T05:26:45.912Z,48.05
2018-02-20T05:29:11.942Z,43.65
2018-02-20T05:31:38.160Z,50.80
2018-02-20T05:34:04.262Z,42.25
2018-02-20T05:36:30.457Z,47.13
2018-02-20T05:38:56.576Z,43.87
2018-02-20T05:41:23.112Z,47.40
2018-02-20T05:43:49.963Z,43.97
2018-02-20T05:46:16.300Z,45.10
2018-02-20T05:48:42.674Z,45.75
2018-02-20T05:51:08.953Z,39.00
2018-02-20T05:53:35.046Z,43.60
2018-02-20T05:56:01.267Z,46.30
2018-02-20T05:58:28.240Z,41.75
2018-02-20T06:00:54.457Z,45.55
2018-02-20T06:03:21.604Z,52.53
2018-02-20T06:05:47.909Z,47.13
2018-02-20T06:08:14.412Z,50.78
2018-02-20T06:10:40.979Z,41.88
2018-02-20T06:13:07.940Z,54.25
2018-02-20T06:15:34.131Z,44.45
2018-02-20T06:18:01.061Z,52.67
2018-02-20T06:20:27.942Z,46.95
2018-02-20T06:22:54.523Z,47.55
2018-02-20T06:25:21.765Z,45.00
2018-02-20T06:27:47.882Z,45.97
2018-02-20T06:30:14.663Z,42.15
2018-02-20T06:32:41.016Z,43.75
2018-02-20T06:35:07.167Z,49.80
2018-02-20T06:37:34.123Z,45.72
2018-02-20T06:40:01.001Z,53.50
2018-02-20T06:42:27.588Z,44.35
2018-02-20T06:44:53.781Z,53.45
2018-02-20T06:47:21.584Z,50.60
2018-02-20T06:49:47.930Z,48.70
2018-02-20T06:52:14.128Z,49.20
2018-02-20T06:54:40.331Z,49.42
2018-02-20T06:57:07.216Z,53.83
2018-02-20T06:59:33.729Z,58.92
2018-02-20T07:02:00.678Z,60.28
2018-02-20T07:04:26.996Z,57.40
2018-02-20T07:06:53.578Z,43.97
2018-02-20T07:09:19.914Z,47.85
2018-02-20T07:11:46.682Z,52.65
2018-02-20T07:14:13.821Z,48.17
2018-02-20T07:16:40.186Z,63.28
2018-02-20T07:19:06.509Z,48.45
2018-02-20T07:21:33.359Z,50.88
2018-02-20T07:23:59.487Z,63.75
2018-02-20T07:26:25.606Z,55.08
2018-02-20T07:28:51.952Z,49.80
2018-02-20T07:31:20.325Z,49.80
2018-02-20T07:33:48.519Z,61.42
2018-02-20T07:36:14.641Z,53.85
2018-02-20T07:38:40.959Z,50.25
2018-02-20T07:41:10.394Z,51.92
2018-02-20T07:43:36.565Z,51.63
2018-02-20T07:46:04.200Z,55.83
2018-02-20T07:48:30.608Z,53.95
2018-02-20T07:50:56.793Z,56.63
2018-02-20T07:53:23.991Z,51.50
2018-02-20T07:55:50.552Z,52.47
2018-02-20T07:58:17.768Z,49.30
2018-02-20T08:00:44.159Z,51.45
2018-02-20T08:03:10.479Z,55.75
2018-02-20T08:05:36.650Z,50.05
2018-02-20T08:08:02.867Z,57.20
2018-02-20T08:10:29.169Z,57.25
2018-02-20T08:12:55.457Z,66.60
2018-02-20T08:15:21.957Z,47.50
2018-02-20T08:17:48.118Z,51.40
2018-02-20T08:20:15.405Z,51.37
2018-02-20T08:22:41.567Z,56.35
2018-02-20T08:25:07.723Z,54.67
2018-02-20T08:27:33.939Z,60.85
2018-02-20T08:30:01.454Z,58.13
2018-02-20T08:32:27.702Z,55.03
2018-02-20T08:34:55.294Z,60.05
2018-02-20T08:37:21.594Z,69.00
2018-02-20T08:39:49.326Z,65.50
2018-02-20T08:42:15.505Z,64.82
2018-02-20T08:44:42.284Z,55.22
2018-02-20T08:47:08.827Z,50.50
2018-02-20T08:49:34.968Z,48.78
2018-02-20T08:52:01.239Z,46.85
2018-02-20T08:54:27.412Z,46.92
2018-02-20T08:56:53.652Z,56.80
2018-02-20T08:59:19.862Z,47.67
2018-02-20T09:01:46.994Z,60.55
2018-02-20T09:04:14.008Z,51.80
2018-02-20T09:06:40.232Z,50.70
2018-02-20T09:09:06.620Z,59.00
2018-02-20T09:11:33.489Z,56.47
2018-02-20T09:13:59.611Z,67.75
2018-02-20T09:16:27.431Z,56.78
2018-02-20T09:18:54.349Z,58.90
2018-02-20T09:21:20.611Z,57.65
2018-02-20T09:23:46.778Z,43.28
2018-02-20T09:26:13.023Z,62.80
2018-02-20T09:28:40.133Z,57.58
2018-02-20T09:31:06.326Z,58.00
2018-02-20T09:33:33.168Z,54.78
2018-02-20T09:36:00.168Z,53.08
2018-02-20T09:38:27.247Z,57.35
2018-02-20T09:40:53.496Z,50.58
2018-02-20T09:43:19.904Z,60.05
2018-02-20T09:45:46.006Z,50.75
2018-02-20T09:48:12.233Z,58.38
2018-02-20T09:50:40.804Z,57.40
2018-02-20T09:53:06.923Z,55.80
2018-02-20T09:55:33.791Z,59.45
2018-02-20T09:57:59.992Z,54.75
2018-02-20T10:00:26.243Z,54.88
2018-02-20T10:02:53.149Z,72.32
2018-02-20T10:05:19.312Z,51.37
2018-02-20T10:07:45.506Z,64.45
2018-02-20T10:10:11.688Z,52.38
2018-02-20T10:12:39.984Z,48.65
2018-02-20T10:15:06.307Z,58.67
2018-02-20T10:17:32.490Z,56.88
2018-02-20T10:19:58.696Z,50.10
2018-02-20T10:22:24.945Z,55.12
2018-02-20T10:24:51.332Z,51.28
2018-02-20T10:27:17.534Z,55.30
2018-02-20T10:29:43.834Z,55.22
2018-02-20T10:32:11.898Z,57.97
2018-02-20T10:34:38.712Z,52.47
2018-02-20T10:37:05.735Z,52.35
2018-02-20T10:39:32.018Z,57.70
2018-02-20T10:41:59.012Z,60.83
2018-02-20T10:44:26.171Z,50.03
2018-02-20T10:46:53.169Z,56.25
2018-02-20T10:49:21.419Z,55.55
2018-02-20T10:51:47.531Z,52.85
2018-02-20T10:54:13.690Z,62.10
2018-02-20T10:56:39.999Z,55.55
2018-02-20T10:59:06.313Z,56.13
2018-02-20T11:01:32.367Z,50.53
2018-02-20T11:03:58.855Z,53.63
2018-02-20T11:06:25.894Z,51.05
2018-02-20T11:08:52.153Z,52.08
2018-02-20T11:11:18.790Z,53.05
2018-02-20T11:13:45.017Z,47.70
2018-02-20T11:16:11.544Z,51.35
2018-02-20T11:18:39.257Z,57.90
2018-02-20T11:21:06.464Z,48.63
2018-02-20T11:23:32.845Z,54.17
2018-02-20T11:25:59.126Z,47.00
2018-02-20T11:28:25.569Z,52.25
2018-02-20T11:30:51.890Z,55.85
2018-02-20T11:33:18.846Z,51.30
2018-02-20T11:35:45.404Z,56.40
2018-02-20T11:38:11.530Z,46.20
2018-02-20T11:40:37.750Z,53.15
2018-02-20T11:43:03.942Z,47.25
2018-02-20T11:45:31.500Z,50.00
2018-02-20T11:47:58.147Z,48.92
2018-02-20T11:50:24.984Z,53.97
2018-02-20T11:52:51.745Z,44.78
2018-02-20T11:55:18.894Z,46.37
2018-02-20T11:57:45.793Z,47.42
2018-02-20T12:00:12.078Z,54.10
2018-02-20T12:02:38.351Z,42.53
2018-02-20T12:05:04.520Z,41.67
2018-02-20T12:07:31.469Z,46.70
2018-02-20T12:09:58.398Z,44.13
2018-02-20T12:12:24.543Z,43.72
2018-02-20T12:14:51.302Z,37.80
2018-02-20T12:17:17.510Z,38.35
2018-02-20T12:19:44.394Z,35.70
2018-02-20T12:22:11.429Z,44.63
2018-02-20T12:24:38.007Z,45.13
2018-02-20T12:27:04.450Z,47.60
2018-02-20T12:29:31.069Z,42.77
2018-02-20T12:31:57.351Z,44.43
2018-02-20T12:34:23.705Z,44.83
2018-02-20T12:36:50.013Z,40.37
2018-02-20T12:39:16.837Z,37.47
2018-02-20T12:41:44.178Z,34.27
2018-02-20T12:44:11.103Z,39.80
2018-02-20T12:46:37.197Z,40.00
2018-02-20T12:49:03.351Z,37.77
2018-02-20T12:51:29.477Z,37.20
2018-02-20T12:53:57.448Z,38.70
2018-02-20T12:56:23.734Z,41.30
2018-02-20T12:58:50.878Z,35.20
2018-02-20T13:01:17.022Z,52.20
2018-02-20T13:03:43.293Z,48.20
2018-02-20T13:06:09.370Z,47.50
2018-02-20T13:08:36.630Z,37.87
2018-02-20T13:11:02.706Z,34.67
2018-02-20T13:13:28.936Z,37.20
2018-02-20T13:15:54.967Z,53.90
2018-02-20T13:18:21.481Z,40.70
2018-02-20T13:20:47.555Z,47.53
2018-02-20T13:23:13.743Z,50.90
2018-02-20T13:25:39.766Z,89.27
2018-02-20T13:28:06.313Z,52.77
2018-02-20T13:30:33.962Z,57.83
2018-02-20T13:33:00.519Z,53.33
2018-02-20T13:35:27.378Z,55.03
2018-02-20T13:37:55.954Z,47.53
2018-02-20T13:40:22.519Z,48.80
2018-02-20T13:42:50.610Z,58.10
2018-02-20T13:45:16.755Z,58.40
2018-02-20T13:47:43.961Z,55.97
2018-02-20T13:50:10.786Z,55.30
2018-02-20T13:52:37.676Z,59.43
2018-02-20T13:55:04.541Z,66.07
2018-02-20T13:57:31.941Z,56.28
2018-02-20T13:59:58.148Z,53.70
2018-02-20T14:02:24.378Z,80.97
2018-02-20T14:04:50.585Z,62.75
2018-02-20T14:07:17.535Z,61.07
2018-02-20T14:09:44.599Z,54.67
2018-02-20T14:12:10.978Z,55.90
2018-02-20T14:14:37.081Z,63.17
2018-02-20T14:17:03.281Z,67.57
2018-02-20T14:19:30.107Z,56.90
2018-02-20T14:21:58.427Z,43.33
2018-02-20T14:24:27.544Z,64.30
2018-02-20T14:26:53.640Z,50.20
2018-02-20T14:29:19.865Z,51.40
2018-02-20T14:31:46.709Z,58.37
2018-02-20T14:34:14.566Z,55.97
2018-02-20T14:36:40.541Z,56.63
2018-02-20T14:39:06.595Z,61.53
2018-02-20T14:41:32.679Z,57.70
2018-02-20T14:43:59.595Z,87.95
2018-02-20T14:46:26.748Z,71.67
2018-02-20T14:48:53.111Z,64.03
2018-02-20T14:51:19.288Z,59.50
2018-02-20T14:53:45.886Z,55.13
2018-02-20T14:56:12.174Z,61.27
2018-02-20T14:58:39.248Z,64.90
2018-02-20T15:01:07.122Z,64.47
2018-02-20T15:03:34.132Z,62.63
2018-02-20T15:06:00.217Z,74.23
2018-02-20T15:08:26.351Z,62.30
2018-02-20T15:10:52.483Z,73.87
2018-02-20T15:13:19.443Z,98.53
2018-02-20T15:15:46.426Z,82.37
2018-02-20T15:18:12.797Z,53.33
2018-02-20T15:20:38.807Z,57.20
2018-02-20T15:23:04.837Z,61.10
2018-02-20T15:25:31.639Z,56.90
2018-02-20T15:27:57.766Z,55.97
2018-02-20T15:30:24.229Z,65.00
2018-02-20T15:32:50.356Z,57.30
2018-02-20T15:35:17.220Z,56.43
2018-02-20T15:37:43.428Z,58.80
2018-02-20T15:40:09.552Z,64.07
2018-02-20T15:42:35.635Z,56.60
2018-02-20T15:45:01.771Z,63.43
2018-02-20T15:47:27.828Z,53.30
2018-02-20T15:49:54.010Z,54.50
2018-02-20T15:52:20.177Z,57.67
2018-02-20T15:54:46.241Z,55.88
2018-02-20T15:57:12.343Z,60.92
2018-02-20T15:59:38.487Z,63.35
2018-02-20T16:02:04.693Z,56.55
2018-02-20T16:04:31.646Z,58.15
2018-02-20T16:06:57.705Z,59.38
2018-02-20T16:09:24.223Z,61.33
2018-02-20T16:11:51.791Z,60.40
2018-02-20T16:14:17.886Z,68.65
2018-02-20T16:16:44.235Z,62.80
2018-02-20T16:19:11.242Z,66.43
2018-02-20T16:21:38.719Z,66.50
2018-02-20T16:24:04.940Z,53.80
2018-02-20T16:26:31.976Z,63.83
2018-02-20T16:28:58.183Z,62.83
2018-02-20T16:31:24.401Z,58.95
2018-02-20T16:33:50.980Z,60.72
2018-02-20T16:36:18.407Z,55.80
2018-02-20T16:38:44.579Z,57.83
2018-02-20T16:41:11.051Z,67.25
2018-02-20T16:43:37.181Z,61.25
2018-02-20T16:46:03.716Z,59.63
2018-02-20T16:48:30.602Z,57.92
2018-02-20T16:50:57.121Z,56.25
2018-02-20T16:53:23.409Z,69.35
2018-02-20T16:55:51.177Z,62.38
2018-02-20T16:58:18.120Z,57.80
2018-02-20T17:00:44.249Z,65.12
2018-02-20T17:03:10.397Z,64.20
2018-02-20T17:05:37.376Z,58.15
2018-02-20T17:08:03.680Z,60.05
2018-02-20T17:10:32.468Z,61.85
2018-02-20T17:12:58.946Z,59.25
2018-02-20T17:15:25.219Z,57.62
2018-02-20T17:17:51.741Z,56.35
2018-02-20T17:20:18.235Z,61.67
2018-02-20T17:22:45.190Z,69.40
2018-02-20T17:25:11.199Z,64.35
2018-02-20T17:27:37.732Z,64.68
2018-02-20T17:30:04.015Z,60.85
2018-02-20T17:32:30.178Z,57.67
2018-02-20T17:34:56.277Z,62.30
2018-02-20T17:37:23.515Z,56.13
2018-02-20T17:39:49.626Z,57.90
2018-02-20T17:42:15.801Z,61.63
2018-02-20T17:44:42.768Z,57.75
2018-02-20T17:47:08.876Z,60.78
2018-02-20T17:49:35.687Z,65.10
2018-02-20T17:52:03.755Z,54.17
2018-02-20T17:54:29.956Z,61.65
2018-02-20T17:56:56.978Z,62.30
2018-02-20T17:59:23.154Z,57.70
2018-02-20T18:01:49.283Z,61.08
2018-02-20T18:04:15.464Z,57.95
2018-02-20T18:06:42.223Z,62.35
2018-02-20T18:09:08.404Z,59.22
2018-02-20T18:11:34.615Z,64.43
2018-02-20T18:14:01.138Z,62.65
2018-02-20T18:16:27.329Z,65.72
2018-02-20T18:18:53.398Z,62.28
2018-02-20T18:21:19.431Z,62.88
2018-02-20T18:23:47.367Z,63.28
2018-02-20T18:26:13.678Z,58.50
2018-02-20T18:28:42.784Z,60.65
2018-02-20T18:31:09.826Z,60.38
2018-02-20T18:33:36.959Z,64.18
2018-02-20T18:36:03.023Z,64.32
2018-02-20T18:38:29.649Z,62.47
2018-02-20T18:40:55.838Z,65.43
2018-02-20T18:43:23.172Z,75.57
2018-02-20T18:45:49.336Z,67.57
2018-02-20T18:48:15.478Z,57.95
2018-02-20T18:50:42.422Z,60.40
2018-02-20T18:53:10.401Z,58.80
2018-02-20T18:55:36.620Z,58.25
2018-02-20T18:58:03.085Z,59.63
2018-02-20T19:00:29.137Z,51.58
2018-02-20T19:02:55.651Z,68.78
2018-02-20T19:05:22.537Z,59.72
2018-02-20T19:07:49.852Z,65.43
2018-02-20T19:10:16.068Z,61.40
2018-02-20T19:12:44.087Z,59.80
2018-02-20T19:15:10.260Z,58.87
2018-02-20T19:17:36.407Z,58.65
2018-02-20T19:20:02.479Z,61.88
2018-02-20T19:22:28.562Z,64.65
2018-02-20T19:24:54.635Z,56.88
2018-02-20T19:27:20.729Z,59.55
2018-02-20T19:29:46.754Z,67.70
2018-02-20T19:32:12.956Z,62.55
2018-02-20T19:34:39.240Z,63.63
2018-02-20T19:37:05.296Z,60.88
2018-02-20T19:39:31.537Z,64.72
2018-02-20T19:41:57.642Z,62.20
2018-02-20T19:44:23.775Z,54.55
2018-02-20T19:46:50.588Z,61.70
2018-02-20T19:49:16.755Z,56.47
2018-02-20T19:51:43.400Z,60.72
2018-02-20T19:54:10.544Z,67.07
2018-02-20T19:56:36.631Z,63.67
2018-02-20T19:59:02.772Z,59.72
2018-02-20T20:01:28.784Z,63.83
2018-02-20T20:03:55.281Z,58.58
2018-02-20T20:06:22.595Z,60.75
2018-02-20T20:08:48.787Z,60.70
2018-02-20T20:11:15.932Z,64.35
2018-02-20T20:13:42.683Z,62.47
2018-02-20T20:16:09.119Z,65.85
2018-02-20T20:18:35.959Z,70.47
2018-02-20T20:21:03.203Z,60.90
2018-02-20T20:23:30.762Z,64.10
2018-02-20T20:25:57.673Z,65.00
2018-02-20T20:28:23.754Z,67.00
2018-02-20T20:30:50.616Z,63.50
2018-02-20T20:33:17.447Z,70.25
2018-02-20T20:35:44.333Z,58.55
2018-02-20T20:38:10.425Z,64.18
2018-02-20T20:40:36.961Z,64.93
2018-02-20T20:43:03.086Z,66.40
2018-02-20T20:45:29.396Z,69.03
2018-02-20T20:47:55.503Z,67.12
2018-02-20T20:50:21.654Z,69.87
2018-02-20T20:52:47.861Z,70.78
2018-02-20T20:55:14.482Z,63.15
2018-02-20T20:57:40.694Z,75.82
2018-02-20T21:00:06.796Z,70.70
2018-02-20T21:02:33.012Z,67.43
2018-02-20T21:04:59.107Z,74.18
2018-02-20T21:07:25.676Z,79.68
2018-02-20T21:09:52.490Z,69.80
2018-02-20T21:12:19.467Z,73.45
2018-02-20T21:14:46.368Z,68.43
2018-02-20T21:17:13.379Z,81.07
2018-02-20T21:19:39.484Z,67.68
2018-02-20T21:22:06.540Z,74.57
2018-02-20T21:24:34.339Z,72.68
2018-02-20T21:27:01.812Z,82.32
2018-02-20T21:29:27.969Z,77.12
2018-02-20T21:31:54.151Z,72.57
2018-02-20T21:34:21.509Z,69.78
2018-02-20T21:36:49.954Z,78.87
2018-02-20T21:39:16.008Z,75.30
2018-02-20T21:41:42.087Z,72.62
2018-02-20T21:44:08.183Z,78.43
2018-02-20T21:46:36.209Z,85.35
2018-02-20T21:49:02.393Z,75.28
2018-02-20T21:51:28.547Z,76.53
2018-02-20T21:53:55.745Z,82.12
2018-02-20T21:56:21.933Z,75.55
2018-02-20T21:58:48.003Z,84.90
2018-02-20T22:01:14.160Z,82.95
2018-02-20T22:03:41.164Z,70.62
2018-02-20T22:06:07.178Z,77.57
2018-02-20T22:08:33.316Z,79.07
2018-02-20T22:10:59.400Z,79.90
2018-02-20T22:13:27.266Z,81.68
2018-02-20T22:15:53.277Z,76.07
2018-02-20T22:18:19.823Z,80.10
2018-02-20T22:20:45.939Z,84.25
2018-02-20T22:23:12.147Z,81.20
2018-02-20T22:25:38.374Z,79.72
2018-02-20T22:28:04.723Z,80.05
2018-02-20T22:30:32.223Z,78.72
2018-02-20T22:32:58.414Z,86.63
2018-02-20T22:35:24.621Z,74.55
2018-02-20T22:37:51.640Z,77.25
2018-02-20T22:40:17.889Z,83.90
2018-02-20T22:42:45.535Z,81.07
2018-02-20T22:45:11.679Z,91.93
2018-02-20T22:47:37.834Z,78.10
2018-02-20T22:50:04.244Z,84.10
2018-02-20T22:52:30.360Z,87.22
2018-02-20T22:54:56.590Z,89.62
2018-02-20T22:57:23.260Z,83.37
2018-02-20T22:59:50.308Z,86.55
2018-02-20T23:02:16.669Z,93.43
2018-02-20T23:04:43.148Z,84.47
2018-02-20T23:07:09.437Z,81.47
2018-02-20T23:09:35.644Z,90.97
2018-02-20T23:12:01.750Z,85.40
2018-02-20T23:14:28.118Z,81.22
2018-02-20T23:16:54.817Z,88.72
2018-02-20T23:19:21.046Z,79.10
2018-02-20T23:21:48.038Z,80.85
2018-02-20T23:24:14.143Z,99.05
2018-02-20T23:26:40.397Z,87.68
2018-02-20T23:29:06.517Z,92.40
2018-02-20T23:31:32.647Z,87.62
2018-02-20T23:33:59.550Z,85.97
2018-02-20T23:36:26.570Z,89.22
2018-02-20T23:38:52.782Z,96.72
2018-02-20T23:41:19.013Z,81.75
2018-02-20T23:43:45.500Z,93.40
2018-02-20T23:46:12.371Z,91.75
2018-02-20T23:48:39.155Z,89.50
2018-02-20T23:51:11.507Z,95.82
2018-02-20T23:53:37.801Z,93.75
2018-02-20T23:56:04.093Z,94.97
2018-02-20T23:58:31.620Z,90.62
